FTTD

Moundou Airport

Chad
METAR FTTD 201500Z 10004KT 8000 NSC 38/11 Q1006
Observed Flight Rules
Feb-20 @ 15:00 UTC (2 hours ago) Marginal Visual Flight Rules
Wind Visibility Clouds
100° at 4 knots 7,998 meters
  • Clear skies
Temperatures Readings
Current 38°C / 100°F
Dewpoint 11°C / 52°F
Humidity 20%
Altimeter 29.7" Hg
Pressure 1006 hPa
Elevation 422
METAR FTTD 201500Z 10004KT 8000 NSC 38/11 Q1006
Observed Flight Rules
Feb-20 @ 15:00 UTC
(2 hours ago)
MVFR
Wind Visibility
100° at 4 knots 7,998 meters
Clouds
  • Clear skies
Temperature Dewpoint
38°C / 100°F 11°C / 52°F
Humidity Altimeter Pressure
20% 29.7" Hg 1006 hPa